Terminal Aerodrome Forecast
Issued by NWS Brownsville, TX

Home | Current Version | Previous Version | Text Only | Print | Product List | Glossary On
Versions: 1 2 3 4 5 6 7 8 9 10 11 12 13 14 15 16 17 18
000
FTUS44 KBRO 270520
TAFBRO
TAF
KBRO 270520Z 2706/2806 05010KT P6SM SKC
     FM271200 03008KT 6SM -RA BR OVC020
     FM271800 07013G18KT 6SM -RA BR OVC008
     FM280000 06005KT 6SM -RA BR OVC008=

USA.gov is the U.S. government's official web portal to all federal, state and local government web resources and services.